sensor_id;sensor_type;location;lat;lon;timestamp;temperature;humidity
44851;DHT22;30583;48.714;9.386;2024-01-15T00:01:44;1.00;65.00
44851;DHT22;30583;48.714;9.386;2024-01-15T00:04:10;1.00;64.60
44851;DHT22;30583;48.714;9.386;2024-01-15T00:06:36;0.80;64.40
44851;DHT22;30583;48.714;9.386;2024-01-15T00:09:02;1.00;64.50
44851;DHT22;30583;48.714;9.386;2024-01-15T00:11:28;1.00;63.90
44851;DHT22;30583;48.714;9.386;2024-01-15T00:13:53;0.60;64.10
44851;DHT22;30583;48.714;9.386;2024-01-15T00:16:19;0.20;66.20
44851;DHT22;30583;48.714;9.386;2024-01-15T00:18:44;0.00;67.00
44851;DHT22;30583;48.714;9.386;2024-01-15T00:21:10;0.20;67.20
44851;DHT22;30583;48.714;9.386;2024-01-15T00:23:36;0.40;67.50
44851;DHT22;30583;48.714;9.386;2024-01-15T00:26:01;0.50;66.90
44851;DHT22;30583;48.714;9.386;2024-01-15T00:28:27;0.30;66.00
44851;DHT22;30583;48.714;9.386;2024-01-15T00:30:52;0.50;66.00
44851;DHT22;30583;48.714;9.386;2024-01-15T00:33:18;0.70;66.20
44851;DHT22;30583;48.714;9.386;2024-01-15T00:35:43;1.00;65.60
44851;DHT22;30583;48.714;9.386;2024-01-15T00:38:09;0.80;64.80
44851;DHT22;30583;48.714;9.386;2024-01-15T00:40:34;0.70;64.90
44851;DHT22;30583;48.714;9.386;2024-01-15T00:43:00;0.70;65.10
44851;DHT22;30583;48.714;9.386;2024-01-15T00:45:25;0.70;65.40
44851;DHT22;30583;48.714;9.386;2024-01-15T00:47:51;0.70;64.90
44851;DHT22;30583;48.714;9.386;2024-01-15T00:50:16;0.40;66.10
44851;DHT22;30583;48.714;9.386;2024-01-15T00:52:42;0.80;65.90
44851;DHT22;30583;48.714;9.386;2024-01-15T00:55:08;0.40;66.50
44851;DHT22;30583;48.714;9.386;2024-01-15T00:57:34;0.80;65.60
44851;DHT22;30583;48.714;9.386;2024-01-15T00:59:59;0.70;65.10
44851;DHT22;30583;48.714;9.386;2024-01-15T01:02:26;0.90;65.40
44851;DHT22;30583;48.714;9.386;2024-01-15T01:04:51;1.00;64.70
44851;DHT22;30583;48.714;9.386;2024-01-15T01:07:17;0.90;64.50
44851;DHT22;30583;48.714;9.386;2024-01-15T01:09:42;0.70;65.30
44851;DHT22;30583;48.714;9.386;2024-01-15T01:12:09;0.70;64.50
44851;DHT22;30583;48.714;9.386;2024-01-15T01:14:35;0.40;66.60
44851;DHT22;30583;48.714;9.386;2024-01-15T01:17:00;0.40;66.40
44851;DHT22;30583;48.714;9.386;2024-01-15T01:19:26;0.20;67.20
44851;DHT22;30583;48.714;9.386;2024-01-15T01:21:51;0.80;66.00
44851;DHT22;30583;48.714;9.386;2024-01-15T01:24:17;0.80;65.90
44851;DHT22;30583;48.714;9.386;2024-01-15T01:26:42;1.20;65.10
44851;DHT22;30583;48.714;9.386;2024-01-15T01:29:08;1.00;65.00
44851;DHT22;30583;48.714;9.386;2024-01-15T01:31:34;1.20;64.80
44851;DHT22;30583;48.714;9.386;2024-01-15T01:33:59;1.00;64.30
44851;DHT22;30583;48.714;9.386;2024-01-15T01:36:25;1.00;65.70
44851;DHT22;30583;48.714;9.386;2024-01-15T01:38:50;1.40;64.60
44851;DHT22;30583;48.714;9.386;2024-01-15T01:41:17;1.70;63.60
44851;DHT22;30583;48.714;9.386;2024-01-15T01:43:43;1.70;63.10
44851;DHT22;30583;48.714;9.386;2024-01-15T01:46:09;1.60;63.10
44851;DHT22;30583;48.714;9.386;2024-01-15T01:48:35;1.80;62.60
44851;DHT22;30583;48.714;9.386;2024-01-15T01:51:02;1.90;62.30
44851;DHT22;30583;48.714;9.386;2024-01-15T01:53:29;1.90;62.80
44851;DHT22;30583;48.714;9.386;2024-01-15T01:55:57;1.60;62.30
44851;DHT22;30583;48.714;9.386;2024-01-15T01:58:23;1.70;63.00
44851;DHT22;30583;48.714;9.386;2024-01-15T02:00:48;1.90;62.10
44851;DHT22;30583;48.714;9.386;2024-01-15T02:03:15;2.10;61.70
44851;DHT22;30583;48.714;9.386;2024-01-15T02:05:42;2.10;61.60
44851;DHT22;30583;48.714;9.386;2024-01-15T02:08:08;1.90;62.30
44851;DHT22;30583;48.714;9.386;2024-01-15T02:10:34;1.80;62.90
44851;DHT22;30583;48.714;9.386;2024-01-15T02:12:59;1.90;62.60
44851;DHT22;30583;48.714;9.386;2024-01-15T02:15:25;1.60;62.20
44851;DHT22;30583;48.714;9.386;2024-01-15T02:18:01;1.80;62.70
44851;DHT22;30583;48.714;9.386;2024-01-15T02:20:27;2.00;62.10
44851;DHT22;30583;48.714;9.386;2024-01-15T02:22:53;2.10;62.00
44851;DHT22;30583;48.714;9.386;2024-01-15T02:25:19;2.20;61.50
44851;DHT22;30583;48.714;9.386;2024-01-15T02:27:45;2.20;61.10
44851;DHT22;30583;48.714;9.386;2024-01-15T02:30:12;2.10;61.20
44851;DHT22;30583;48.714;9.386;2024-01-15T02:32:41;1.70;61.50
44851;DHT22;30583;48.714;9.386;2024-01-15T02:35:07;1.90;62.00
44851;DHT22;30583;48.714;9.386;2024-01-15T02:37:32;1.70;62.30
44851;DHT22;30583;48.714;9.386;2024-01-15T02:39:58;1.50;62.70
44851;DHT22;30583;48.714;9.386;2024-01-15T02:42:23;1.30;63.50
44851;DHT22;30583;48.714;9.386;2024-01-15T02:44:51;1.30;63.80
44851;DHT22;30583;48.714;9.386;2024-01-15T02:47:16;1.10;64.40
44851;DHT22;30583;48.714;9.386;2024-01-15T02:49:42;1.20;64.20
44851;DHT22;30583;48.714;9.386;2024-01-15T02:52:08;1.60;63.20
44851;DHT22;30583;48.714;9.386;2024-01-15T02:54:33;1.40;63.90
44851;DHT22;30583;48.714;9.386;2024-01-15T02:56:59;1.60;63.50
44851;DHT22;30583;48.714;9.386;2024-01-15T02:59:24;1.40;63.80
44851;DHT22;30583;48.714;9.386;2024-01-15T03:01:50;1.50;64.20
44851;DHT22;30583;48.714;9.386;2024-01-15T03:04:15;1.40;63.90
44851;DHT22;30583;48.714;9.386;2024-01-15T03:06:41;1.50;63.80
44851;DHT22;30583;48.714;9.386;2024-01-15T03:09:07;1.60;63.30
44851;DHT22;30583;48.714;9.386;2024-01-15T03:11:39;1.60;63.60
44851;DHT22;30583;48.714;9.386;2024-01-15T03:14:04;1.60;63.10
44851;DHT22;30583;48.714;9.386;2024-01-15T03:16:30;1.70;63.40
44851;DHT22;30583;48.714;9.386;2024-01-15T03:18:55;1.90;62.70
44851;DHT22;30583;48.714;9.386;2024-01-15T03:21:21;1.90;62.90
44851;DHT22;30583;48.714;9.386;2024-01-15T03:23:47;1.70;62.80
44851;DHT22;30583;48.714;9.386;2024-01-15T03:26:12;1.90;62.70
44851;DHT22;30583;48.714;9.386;2024-01-15T03:28:38;1.30;63.90
44851;DHT22;30583;48.714;9.386;2024-01-15T03:31:03;1.70;64.00
44851;DHT22;30583;48.714;9.386;2024-01-15T03:33:29;1.80;63.20
44851;DHT22;30583;48.714;9.386;2024-01-15T03:35:54;1.60;63.30
44851;DHT22;30583;48.714;9.386;2024-01-15T03:38:20;1.60;64.20
44851;DHT22;30583;48.714;9.386;2024-01-15T03:40:45;1.30;64.20
44851;DHT22;30583;48.714;9.386;2024-01-15T03:43:12;1.40;64.60
44851;DHT22;30583;48.714;9.386;2024-01-15T03:45:37;1.60;64.30
44851;DHT22;30583;48.714;9.386;2024-01-15T03:48:03;1.80;63.70
44851;DHT22;30583;48.714;9.386;2024-01-15T03:50:29;1.70;63.70
44851;DHT22;30583;48.714;9.386;2024-01-15T03:52:54;1.10;64.50
44851;DHT22;30583;48.714;9.386;2024-01-15T03:55:20;1.20;65.70
44851;DHT22;30583;48.714;9.386;2024-01-15T03:57:45;1.30;64.90
44851;DHT22;30583;48.714;9.386;2024-01-15T04:00:11;1.30;64.50
44851;DHT22;30583;48.714;9.386;2024-01-15T04:02:37;0.80;66.30
44851;DHT22;30583;48.714;9.386;2024-01-15T04:05:03;0.90;66.70
44851;DHT22;30583;48.714;9.386;2024-01-15T04:07:28;1.10;65.20
44851;DHT22;30583;48.714;9.386;2024-01-15T04:09:54;1.40;64.90
44851;DHT22;30583;48.714;9.386;2024-01-15T04:12:19;1.00;65.40
44851;DHT22;30583;48.714;9.386;2024-01-15T04:14:45;1.50;65.00
44851;DHT22;30583;48.714;9.386;2024-01-15T04:17:11;0.70;67.10
44851;DHT22;30583;48.714;9.386;2024-01-15T04:19:36;1.20;66.40
44851;DHT22;30583;48.714;9.386;2024-01-15T04:22:02;1.70;64.80
44851;DHT22;30583;48.714;9.386;2024-01-15T04:24:27;1.80;63.90
44851;DHT22;30583;48.714;9.386;2024-01-15T04:26:53;1.70;64.10
44851;DHT22;30583;48.714;9.386;2024-01-15T04:29:18;1.60;64.20
44851;DHT22;30583;48.714;9.386;2024-01-15T04:31:44;1.60;64.30
44851;DHT22;30583;48.714;9.386;2024-01-15T04:34:10;1.60;64.50
44851;DHT22;30583;48.714;9.386;2024-01-15T04:36:39;1.70;64.30
44851;DHT22;30583;48.714;9.386;2024-01-15T04:39:06;1.40;64.90
44851;DHT22;30583;48.714;9.386;2024-01-15T04:41:31;1.40;64.70
44851;DHT22;30583;48.714;9.386;2024-01-15T04:43:57;1.00;66.20
44851;DHT22;30583;48.714;9.386;2024-01-15T04:46:22;1.20;66.40
44851;DHT22;30583;48.714;9.386;2024-01-15T04:48:48;1.60;65.50
44851;DHT22;30583;48.714;9.386;2024-01-15T04:51:13;1.70;64.70
44851;DHT22;30583;48.714;9.386;2024-01-15T04:53:39;1.60;65.40
44851;DHT22;30583;48.714;9.386;2024-01-15T04:56:04;1.70;64.50
44851;DHT22;30583;48.714;9.386;2024-01-15T04:58:30;1.60;65.10
44851;DHT22;30583;48.714;9.386;2024-01-15T05:00:56;1.80;64.70
44851;DHT22;30583;48.714;9.386;2024-01-15T05:03:21;1.80;64.60
44851;DHT22;30583;48.714;9.386;2024-01-15T05:05:47;1.80;64.40
44851;DHT22;30583;48.714;9.386;2024-01-15T05:08:12;2.00;64.10
44851;DHT22;30583;48.714;9.386;2024-01-15T05:10:38;2.10;64.40
44851;DHT22;30583;48.714;9.386;2024-01-15T05:13:03;2.10;64.20
44851;DHT22;30583;48.714;9.386;2024-01-15T05:15:29;2.30;63.90
44851;DHT22;30583;48.714;9.386;2024-01-15T05:17:55;2.30;63.40
44851;DHT22;30583;48.714;9.386;2024-01-15T05:20:20;2.10;63.70
44851;DHT22;30583;48.714;9.386;2024-01-15T05:22:46;2.00;64.10
44851;DHT22;30583;48.714;9.386;2024-01-15T05:25:11;1.60;65.50
44851;DHT22;30583;48.714;9.386;2024-01-15T05:27:37;1.70;65.60
44851;DHT22;30583;48.714;9.386;2024-01-15T05:30:03;1.90;65.20
44851;DHT22;30583;48.714;9.386;2024-01-15T05:32:29;2.00;65.00
44851;DHT22;30583;48.714;9.386;2024-01-15T05:34:54;2.50;64.00
44851;DHT22;30583;48.714;9.386;2024-01-15T05:37:20;2.40;63.10
44851;DHT22;30583;48.714;9.386;2024-01-15T05:39:46;2.70;63.10
44851;DHT22;30583;48.714;9.386;2024-01-15T05:42:11;2.70;63.00
44851;DHT22;30583;48.714;9.386;2024-01-15T05:44:37;2.80;62.80
44851;DHT22;30583;48.714;9.386;2024-01-15T05:47:02;2.70;62.60
44851;DHT22;30583;48.714;9.386;2024-01-15T05:49:29;2.70;63.10
44851;DHT22;30583;48.714;9.386;2024-01-15T05:51:55;2.70;62.80
44851;DHT22;30583;48.714;9.386;2024-01-15T05:54:20;2.60;62.70
44851;DHT22;30583;48.714;9.386;2024-01-15T05:56:46;2.30;64.00
44851;DHT22;30583;48.714;9.386;2024-01-15T05:59:11;2.30;64.10
44851;DHT22;30583;48.714;9.386;2024-01-15T06:01:37;2.40;63.40
44851;DHT22;30583;48.714;9.386;2024-01-15T06:04:03;2.40;63.70
44851;DHT22;30583;48.714;9.386;2024-01-15T06:06:28;2.40;64.10
44851;DHT22;30583;48.714;9.386;2024-01-15T06:08:54;2.20;64.00
44851;DHT22;30583;48.714;9.386;2024-01-15T06:11:20;1.80;65.50
44851;DHT22;30583;48.714;9.386;2024-01-15T06:13:45;2.00;65.30
44851;DHT22;30583;48.714;9.386;2024-01-15T06:16:15;2.20;65.20
44851;DHT22;30583;48.714;9.386;2024-01-15T06:18:45;2.20;64.30
44851;DHT22;30583;48.714;9.386;2024-01-15T06:21:11;2.20;64.90
44851;DHT22;30583;48.714;9.386;2024-01-15T06:23:38;1.90;65.40
44851;DHT22;30583;48.714;9.386;2024-01-15T06:26:04;1.80;66.30
44851;DHT22;30583;48.714;9.386;2024-01-15T06:28:30;1.90;65.60
44851;DHT22;30583;48.714;9.386;2024-01-15T06:30:56;2.00;65.70
44851;DHT22;30583;48.714;9.386;2024-01-15T06:33:22;1.90;65.30
44851;DHT22;30583;48.714;9.386;2024-01-15T06:35:48;2.20;64.80
44851;DHT22;30583;48.714;9.386;2024-01-15T06:38:14;1.80;65.40
44851;DHT22;30583;48.714;9.386;2024-01-15T06:40:40;1.90;66.00
44851;DHT22;30583;48.714;9.386;2024-01-15T06:43:11;2.20;65.20
44851;DHT22;30583;48.714;9.386;2024-01-15T06:45:36;2.20;64.50
44851;DHT22;30583;48.714;9.386;2024-01-15T06:48:02;2.00;65.10
44851;DHT22;30583;48.714;9.386;2024-01-15T06:50:28;2.40;67.30
44851;DHT22;30583;48.714;9.386;2024-01-15T06:52:53;2.20;68.40
44851;DHT22;30583;48.714;9.386;2024-01-15T06:55:19;2.20;66.60
44851;DHT22;30583;48.714;9.386;2024-01-15T06:57:44;1.90;66.40
44851;DHT22;30583;48.714;9.386;2024-01-15T07:00:10;2.00;66.70
44851;DHT22;30583;48.714;9.386;2024-01-15T07:02:36;1.80;67.30
44851;DHT22;30583;48.714;9.386;2024-01-15T07:05:02;2.20;66.10
44851;DHT22;30583;48.714;9.386;2024-01-15T07:07:30;2.40;65.50
44851;DHT22;30583;48.714;9.386;2024-01-15T07:09:56;2.40;65.20
44851;DHT22;30583;48.714;9.386;2024-01-15T07:12:22;2.10;65.40
44851;DHT22;30583;48.714;9.386;2024-01-15T07:14:47;1.70;66.50
44851;DHT22;30583;48.714;9.386;2024-01-15T07:17:13;1.90;66.00
44851;DHT22;30583;48.714;9.386;2024-01-15T07:19:38;1.60;66.70
44851;DHT22;30583;48.714;9.386;2024-01-15T07:22:04;1.90;66.30
44851;DHT22;30583;48.714;9.386;2024-01-15T07:24:30;2.10;65.70
44851;DHT22;30583;48.714;9.386;2024-01-15T07:26:55;2.30;64.50
44851;DHT22;30583;48.714;9.386;2024-01-15T07:29:21;2.50;63.60
44851;DHT22;30583;48.714;9.386;2024-01-15T07:31:50;2.70;63.00
44851;DHT22;30583;48.714;9.386;2024-01-15T07:34:16;2.50;63.60
44851;DHT22;30583;48.714;9.386;2024-01-15T07:36:45;2.70;62.90
44851;DHT22;30583;48.714;9.386;2024-01-15T07:39:10;2.70;62.70
44851;DHT22;30583;48.714;9.386;2024-01-15T07:41:36;2.90;62.30
44851;DHT22;30583;48.714;9.386;2024-01-15T07:44:02;2.90;62.40
44851;DHT22;30583;48.714;9.386;2024-01-15T07:46:28;2.70;62.90
44851;DHT22;30583;48.714;9.386;2024-01-15T07:48:54;2.60;63.20
44851;DHT22;30583;48.714;9.386;2024-01-15T07:51:23;2.60;62.60
44851;DHT22;30583;48.714;9.386;2024-01-15T07:53:49;2.10;62.80
44851;DHT22;30583;48.714;9.386;2024-01-15T07:56:14;2.30;62.60
44851;DHT22;30583;48.714;9.386;2024-01-15T07:58:40;2.00;63.20
44851;DHT22;30583;48.714;9.386;2024-01-15T08:01:05;2.50;62.60
44851;DHT22;30583;48.714;9.386;2024-01-15T08:03:31;2.70;62.20
44851;DHT22;30583;48.714;9.386;2024-01-15T08:05:58;2.90;61.70
44851;DHT22;30583;48.714;9.386;2024-01-15T08:08:24;2.90;62.30
44851;DHT22;30583;48.714;9.386;2024-01-15T08:10:52;3.00;61.90
44851;DHT22;30583;48.714;9.386;2024-01-15T08:13:18;3.00;61.10
44851;DHT22;30583;48.714;9.386;2024-01-15T08:15:44;2.90;60.80
44851;DHT22;30583;48.714;9.386;2024-01-15T08:18:09;3.10;60.80
44851;DHT22;30583;48.714;9.386;2024-01-15T08:20:35;3.00;60.70
44851;DHT22;30583;48.714;9.386;2024-01-15T08:23:01;2.90;61.30
44851;DHT22;30583;48.714;9.386;2024-01-15T08:25:26;2.80;60.40
44851;DHT22;30583;48.714;9.386;2024-01-15T08:27:52;3.20;59.50
44851;DHT22;30583;48.714;9.386;2024-01-15T08:30:18;3.10;59.40
44851;DHT22;30583;48.714;9.386;2024-01-15T08:32:46;3.20;59.30
44851;DHT22;30583;48.714;9.386;2024-01-15T08:35:12;3.20;58.80
44851;DHT22;30583;48.714;9.386;2024-01-15T08:37:38;3.10;59.00
44851;DHT22;30583;48.714;9.386;2024-01-15T08:40:04;3.30;58.40
44851;DHT22;30583;48.714;9.386;2024-01-15T08:42:30;3.30;58.40
44851;DHT22;30583;48.714;9.386;2024-01-15T08:44:55;3.20;57.50
44851;DHT22;30583;48.714;9.386;2024-01-15T08:47:21;2.80;58.80
44851;DHT22;30583;48.714;9.386;2024-01-15T08:49:46;3.00;58.50
44851;DHT22;30583;48.714;9.386;2024-01-15T08:52:12;3.00;58.00
44851;DHT22;30583;48.714;9.386;2024-01-15T08:54:39;3.20;58.10
44851;DHT22;30583;48.714;9.386;2024-01-15T08:57:04;3.20;58.00
44851;DHT22;30583;48.714;9.386;2024-01-15T08:59:30;3.40;57.90
44851;DHT22;30583;48.714;9.386;2024-01-15T09:01:55;3.20;57.90
44851;DHT22;30583;48.714;9.386;2024-01-15T09:04:23;3.30;58.10
44851;DHT22;30583;48.714;9.386;2024-01-15T09:06:48;3.20;58.00
44851;DHT22;30583;48.714;9.386;2024-01-15T09:09:14;3.30;58.50
44851;DHT22;30583;48.714;9.386;2024-01-15T09:11:40;3.40;57.70
44851;DHT22;30583;48.714;9.386;2024-01-15T09:14:06;3.40;57.80
44851;DHT22;30583;48.714;9.386;2024-01-15T09:16:32;2.70;58.70
44851;DHT22;30583;48.714;9.386;2024-01-15T09:18:57;3.00;58.20
44851;DHT22;30583;48.714;9.386;2024-01-15T09:21:23;3.00;58.20
44851;DHT22;30583;48.714;9.386;2024-01-15T09:23:50;3.40;57.60
44851;DHT22;30583;48.714;9.386;2024-01-15T09:26:16;3.30;57.10
44851;DHT22;30583;48.714;9.386;2024-01-15T09:28:41;3.40;57.30
44851;DHT22;30583;48.714;9.386;2024-01-15T09:31:07;3.30;57.10
44851;DHT22;30583;48.714;9.386;2024-01-15T09:33:33;3.40;57.20
44851;DHT22;30583;48.714;9.386;2024-01-15T09:36:02;3.10;56.90
44851;DHT22;30583;48.714;9.386;2024-01-15T09:38:32;3.30;56.40
44851;DHT22;30583;48.714;9.386;2024-01-15T09:40:57;3.10;57.50
44851;DHT22;30583;48.714;9.386;2024-01-15T09:43:24;3.20;57.60
44851;DHT22;30583;48.714;9.386;2024-01-15T09:45:50;3.30;56.90
44851;DHT22;30583;48.714;9.386;2024-01-15T09:48:16;3.40;56.60
44851;DHT22;30583;48.714;9.386;2024-01-15T09:50:42;3.50;56.60
44851;DHT22;30583;48.714;9.386;2024-01-15T09:53:09;3.70;56.20
44851;DHT22;30583;48.714;9.386;2024-01-15T09:55:36;3.70;56.00
44851;DHT22;30583;48.714;9.386;2024-01-15T09:58:03;3.70;56.00
44851;DHT22;30583;48.714;9.386;2024-01-15T10:00:29;3.60;56.00
44851;DHT22;30583;48.714;9.386;2024-01-15T10:02:56;3.40;56.40
44851;DHT22;30583;48.714;9.386;2024-01-15T10:05:22;3.30;56.50
44851;DHT22;30583;48.714;9.386;2024-01-15T10:07:47;3.30;56.80
44851;DHT22;30583;48.714;9.386;2024-01-15T10:10:15;3.40;56.10
44851;DHT22;30583;48.714;9.386;2024-01-15T10:12:42;3.30;56.00
44851;DHT22;30583;48.714;9.386;2024-01-15T10:15:10;3.40;56.30
44851;DHT22;30583;48.714;9.386;2024-01-15T10:17:41;3.50;56.00
44851;DHT22;30583;48.714;9.386;2024-01-15T10:20:11;3.60;55.80
44851;DHT22;30583;48.714;9.386;2024-01-15T10:22:43;3.50;55.80
44851;DHT22;30583;48.714;9.386;2024-01-15T10:25:13;3.40;56.30
44851;DHT22;30583;48.714;9.386;2024-01-15T10:27:40;3.60;55.80
44851;DHT22;30583;48.714;9.386;2024-01-15T10:30:07;3.50;55.90
44851;DHT22;30583;48.714;9.386;2024-01-15T10:32:33;3.30;56.40
44851;DHT22;30583;48.714;9.386;2024-01-15T10:34:58;3.20;56.80
44851;DHT22;30583;48.714;9.386;2024-01-15T10:37:24;3.40;56.40
44851;DHT22;30583;48.714;9.386;2024-01-15T10:39:51;3.30;56.30
44851;DHT22;30583;48.714;9.386;2024-01-15T10:42:17;3.60;56.70
44851;DHT22;30583;48.714;9.386;2024-01-15T10:44:44;3.40;56.20
44851;DHT22;30583;48.714;9.386;2024-01-15T10:47:12;3.20;57.40
44851;DHT22;30583;48.714;9.386;2024-01-15T10:49:38;3.40;56.80
44851;DHT22;30583;48.714;9.386;2024-01-15T10:52:04;3.20;57.10
44851;DHT22;30583;48.714;9.386;2024-01-15T10:54:30;3.00;57.30
44851;DHT22;30583;48.714;9.386;2024-01-15T10:56:56;3.20;57.80
44851;DHT22;30583;48.714;9.386;2024-01-15T10:59:22;3.40;57.40
44851;DHT22;30583;48.714;9.386;2024-01-15T11:01:49;3.60;56.40
44851;DHT22;30583;48.714;9.386;2024-01-15T11:04:15;3.60;56.60
44851;DHT22;30583;48.714;9.386;2024-01-15T11:06:47;3.50;57.00
44851;DHT22;30583;48.714;9.386;2024-01-15T11:09:13;3.50;57.20
44851;DHT22;30583;48.714;9.386;2024-01-15T11:11:41;3.20;57.80
44851;DHT22;30583;48.714;9.386;2024-01-15T11:14:07;3.60;57.60
44851;DHT22;30583;48.714;9.386;2024-01-15T11:17:05;3.50;57.20
44851;DHT22;30583;48.714;9.386;2024-01-15T11:24:44;3.70;57.20
44851;DHT22;30583;48.714;9.386;2024-01-15T11:27:10;3.90;56.70
44851;DHT22;30583;48.714;9.386;2024-01-15T11:29:37;3.40;57.80
44851;DHT22;30583;48.714;9.386;2024-01-15T11:32:04;3.30;58.50
44851;DHT22;30583;48.714;9.386;2024-01-15T11:35:09;3.30;59.30
44851;DHT22;30583;48.714;9.386;2024-01-15T11:38:07;3.50;58.70
44851;DHT22;30583;48.714;9.386;2024-01-15T11:42:59;3.50;58.90
44851;DHT22;30583;48.714;9.386;2024-01-15T11:45:24;3.20;59.80
44851;DHT22;30583;48.714;9.386;2024-01-15T11:48:11;3.20;60.40
44851;DHT22;30583;48.714;9.386;2024-01-15T11:50:40;3.20;60.00
44851;DHT22;30583;48.714;9.386;2024-01-15T11:53:15;3.20;60.30
44851;DHT22;30583;48.714;9.386;2024-01-15T11:55:44;3.50;59.50
44851;DHT22;30583;48.714;9.386;2024-01-15T11:58:11;3.20;60.00
44851;DHT22;30583;48.714;9.386;2024-01-15T12:00:40;3.40;59.90
44851;DHT22;30583;48.714;9.386;2024-01-15T12:03:07;3.20;60.70
44851;DHT22;30583;48.714;9.386;2024-01-15T12:05:37;3.20;61.10
44851;DHT22;30583;48.714;9.386;2024-01-15T12:08:02;3.30;60.40
44851;DHT22;30583;48.714;9.386;2024-01-15T12:10:28;3.40;60.90
44851;DHT22;30583;48.714;9.386;2024-01-15T12:13:04;3.20;61.10
44851;DHT22;30583;48.714;9.386;2024-01-15T12:15:31;3.20;61.50
44851;DHT22;30583;48.714;9.386;2024-01-15T12:17:58;3.40;61.30
44851;DHT22;30583;48.714;9.386;2024-01-15T12:20:25;3.30;61.10
44851;DHT22;30583;48.714;9.386;2024-01-15T12:22:51;2.90;62.60
44851;DHT22;30583;48.714;9.386;2024-01-15T12:25:17;3.10;62.90
44851;DHT22;30583;48.714;9.386;2024-01-15T12:27:43;2.70;65.10
44851;DHT22;30583;48.714;9.386;2024-01-15T12:30:11;3.20;65.00
44851;DHT22;30583;48.714;9.386;2024-01-15T12:32:37;3.00;65.90
44851;DHT22;30583;48.714;9.386;2024-01-15T12:35:03;2.70;67.90
44851;DHT22;30583;48.714;9.386;2024-01-15T12:37:30;2.90;67.90
44851;DHT22;30583;48.714;9.386;2024-01-15T12:39:55;2.80;68.30
44851;DHT22;30583;48.714;9.386;2024-01-15T12:42:21;3.10;67.70
44851;DHT22;30583;48.714;9.386;2024-01-15T12:44:47;3.30;67.90
44851;DHT22;30583;48.714;9.386;2024-01-15T12:47:13;2.60;70.20
44851;DHT22;30583;48.714;9.386;2024-01-15T12:49:39;2.50;71.80
44851;DHT22;30583;48.714;9.386;2024-01-15T12:52:08;2.30;72.80
44851;DHT22;30583;48.714;9.386;2024-01-15T12:54:34;2.30;74.40
44851;DHT22;30583;48.714;9.386;2024-01-15T12:57:00;2.60;74.20
44851;DHT22;30583;48.714;9.386;2024-01-15T12:59:25;2.80;73.60
44851;DHT22;30583;48.714;9.386;2024-01-15T13:01:51;2.50;74.50
44851;DHT22;30583;48.714;9.386;2024-01-15T13:04:24;2.50;75.00
44851;DHT22;30583;48.714;9.386;2024-01-15T13:06:50;2.80;74.80
44851;DHT22;30583;48.714;9.386;2024-01-15T13:09:16;2.90;74.20
44851;DHT22;30583;48.714;9.386;2024-01-15T13:11:45;2.80;75.10
44851;DHT22;30583;48.714;9.386;2024-01-15T13:14:11;3.30;74.80
44851;DHT22;30583;48.714;9.386;2024-01-15T13:16:37;2.70;75.50
44851;DHT22;30583;48.714;9.386;2024-01-15T13:19:02;2.70;76.30
44851;DHT22;30583;48.714;9.386;2024-01-15T13:21:29;2.70;76.50
44851;DHT22;30583;48.714;9.386;2024-01-15T13:23:55;2.70;76.10
44851;DHT22;30583;48.714;9.386;2024-01-15T13:26:21;2.60;76.20
44851;DHT22;30583;48.714;9.386;2024-01-15T13:28:46;2.40;77.20
44851;DHT22;30583;48.714;9.386;2024-01-15T13:31:12;2.30;78.20
44851;DHT22;30583;48.714;9.386;2024-01-15T13:33:38;2.70;77.80
44851;DHT22;30583;48.714;9.386;2024-01-15T13:36:05;2.60;77.20
44851;DHT22;30583;48.714;9.386;2024-01-15T13:38:33;2.80;77.30
44851;DHT22;30583;48.714;9.386;2024-01-15T13:41:02;2.70;77.00
44851;DHT22;30583;48.714;9.386;2024-01-15T13:43:28;2.30;78.40
44851;DHT22;30583;48.714;9.386;2024-01-15T13:45:53;2.40;78.50
44851;DHT22;30583;48.714;9.386;2024-01-15T13:48:20;2.90;77.70
44851;DHT22;30583;48.714;9.386;2024-01-15T13:50:45;2.90;77.40
44851;DHT22;30583;48.714;9.386;2024-01-15T13:53:11;3.20;76.50
44851;DHT22;30583;48.714;9.386;2024-01-15T13:55:37;2.80;75.70
44851;DHT22;30583;48.714;9.386;2024-01-15T13:58:02;2.80;77.00
44851;DHT22;30583;48.714;9.386;2024-01-15T14:00:31;2.40;78.10
44851;DHT22;30583;48.714;9.386;2024-01-15T14:02:57;2.70;78.30
44851;DHT22;30583;48.714;9.386;2024-01-15T14:05:23;2.80;77.40
44851;DHT22;30583;48.714;9.386;2024-01-15T14:07:48;2.20;78.50
44851;DHT22;30583;48.714;9.386;2024-01-15T14:10:14;2.90;78.10
44851;DHT22;30583;48.714;9.386;2024-01-15T14:12:40;2.90;77.50
44851;DHT22;30583;48.714;9.386;2024-01-15T14:15:06;2.70;77.90
44851;DHT22;30583;48.714;9.386;2024-01-15T14:17:32;3.00;78.00
44851;DHT22;30583;48.714;9.386;2024-01-15T14:19:57;3.10;76.90
44851;DHT22;30583;48.714;9.386;2024-01-15T14:22:23;3.00;77.60
44851;DHT22;30583;48.714;9.386;2024-01-15T14:24:48;3.10;77.00
44851;DHT22;30583;48.714;9.386;2024-01-15T14:27:15;2.80;78.20
44851;DHT22;30583;48.714;9.386;2024-01-15T14:29:40;3.00;77.50
44851;DHT22;30583;48.714;9.386;2024-01-15T14:32:06;3.20;77.20
44851;DHT22;30583;48.714;9.386;2024-01-15T14:34:32;2.80;77.60
44851;DHT22;30583;48.714;9.386;2024-01-15T14:36:57;2.40;78.40
44851;DHT22;30583;48.714;9.386;2024-01-15T14:39:23;2.70;79.00
44851;DHT22;30583;48.714;9.386;2024-01-15T14:41:49;2.40;79.40
44851;DHT22;30583;48.714;9.386;2024-01-15T14:44:14;2.80;79.40
44851;DHT22;30583;48.714;9.386;2024-01-15T14:46:40;3.10;78.80
44851;DHT22;30583;48.714;9.386;2024-01-15T14:49:06;2.70;78.40
44851;DHT22;30583;48.714;9.386;2024-01-15T14:51:32;2.60;79.10
44851;DHT22;30583;48.714;9.386;2024-01-15T14:53:57;2.30;79.90
44851;DHT22;30583;48.714;9.386;2024-01-15T14:56:23;2.20;80.10
44851;DHT22;30583;48.714;9.386;2024-01-15T14:58:49;2.30;78.90
44851;DHT22;30583;48.714;9.386;2024-01-15T15:01:15;2.30;79.00
44851;DHT22;30583;48.714;9.386;2024-01-15T15:03:40;2.70;77.80
44851;DHT22;30583;48.714;9.386;2024-01-15T15:06:06;2.50;77.10
44851;DHT22;30583;48.714;9.386;2024-01-15T15:08:35;2.90;77.20
44851;DHT22;30583;48.714;9.386;2024-01-15T15:11:03;2.90;75.50
44851;DHT22;30583;48.714;9.386;2024-01-15T15:13:28;2.70;75.50
44851;DHT22;30583;48.714;9.386;2024-01-15T15:15:54;2.70;75.30
44851;DHT22;30583;48.714;9.386;2024-01-15T15:18:20;2.90;75.20
44851;DHT22;30583;48.714;9.386;2024-01-15T15:20:50;2.70;75.50
44851;DHT22;30583;48.714;9.386;2024-01-15T15:23:16;3.00;75.20
44851;DHT22;30583;48.714;9.386;2024-01-15T15:25:42;3.20;74.30
44851;DHT22;30583;48.714;9.386;2024-01-15T15:28:09;3.20;73.90
44851;DHT22;30583;48.714;9.386;2024-01-15T15:30:36;3.00;73.90
44851;DHT22;30583;48.714;9.386;2024-01-15T15:33:02;3.00;74.40
44851;DHT22;30583;48.714;9.386;2024-01-15T15:35:28;2.60;74.30
44851;DHT22;30583;48.714;9.386;2024-01-15T15:37:54;2.70;74.80
44851;DHT22;30583;48.714;9.386;2024-01-15T15:40:20;2.20;75.20
44851;DHT22;30583;48.714;9.386;2024-01-15T15:42:46;2.40;74.70
44851;DHT22;30583;48.714;9.386;2024-01-15T15:45:12;2.20;74.50
44851;DHT22;30583;48.714;9.386;2024-01-15T15:47:38;2.30;74.50